sensor_id;sensor_type;location;lat;lon;timestamp;P1;durP1;ratioP1;P2;durP2;ratioP2
15167;SDS011;7684;52.150;11.656;2022-07-19T00:01:36;4.70;;;2.03;;
15167;SDS011;7684;52.150;11.656;2022-07-19T00:04:04;4.28;;;1.90;;
15167;SDS011;7684;52.150;11.656;2022-07-19T00:06:31;6.03;;;2.55;;
15167;SDS011;7684;52.150;11.656;2022-07-19T00:08:57;3.70;;;1.95;;
15167;SDS011;7684;52.150;11.656;2022-07-19T00:11:24;4.55;;;2.05;;
15167;SDS011;7684;52.150;11.656;2022-07-19T00:13:51;4.53;;;2.03;;
15167;SDS011;7684;52.150;11.656;2022-07-19T00:16:17;4.00;;;1.73;;
15167;SDS011;7684;52.150;11.656;2022-07-19T00:18:44;5.47;;;1.95;;
15167;SDS011;7684;52.150;11.656;2022-07-19T00:21:11;4.53;;;1.90;;
15167;SDS011;7684;52.150;11.656;2022-07-19T00:23:38;5.50;;;2.23;;
15167;SDS011;7684;52.150;11.656;2022-07-19T00:26:04;4.57;;;2.03;;
15167;SDS011;7684;52.150;11.656;2022-07-19T00:28:30;8.50;;;2.63;;
15167;SDS011;7684;52.150;11.656;2022-07-19T00:30:57;5.70;;;2.13;;
15167;SDS011;7684;52.150;11.656;2022-07-19T00:33:24;6.80;;;2.10;;
15167;SDS011;7684;52.150;11.656;2022-07-19T00:35:50;4.03;;;2.17;;
15167;SDS011;7684;52.150;11.656;2022-07-19T00:38:18;4.50;;;2.20;;
15167;SDS011;7684;52.150;11.656;2022-07-19T00:40:45;4.43;;;2.00;;
15167;SDS011;7684;52.150;11.656;2022-07-19T00:43:12;8.03;;;2.10;;
15167;SDS011;7684;52.150;11.656;2022-07-19T00:45:38;5.85;;;2.30;;
15167;SDS011;7684;52.150;11.656;2022-07-19T00:48:05;6.43;;;2.10;;
15167;SDS011;7684;52.150;11.656;2022-07-19T00:50:31;5.20;;;1.67;;
15167;SDS011;7684;52.150;11.656;2022-07-19T00:53:00;7.33;;;2.13;;
15167;SDS011;7684;52.150;11.656;2022-07-19T00:55:29;6.87;;;2.17;;
15167;SDS011;7684;52.150;11.656;2022-07-19T00:57:56;3.40;;;1.93;;
15167;SDS011;7684;52.150;11.656;2022-07-19T01:00:23;4.70;;;2.07;;
15167;SDS011;7684;52.150;11.656;2022-07-19T01:02:50;8.18;;;1.98;;
15167;SDS011;7684;52.150;11.656;2022-07-19T01:05:17;5.50;;;2.00;;
15167;SDS011;7684;52.150;11.656;2022-07-19T01:07:44;5.13;;;2.33;;
15167;SDS011;7684;52.150;11.656;2022-07-19T01:10:11;3.03;;;1.97;;
15167;SDS011;7684;52.150;11.656;2022-07-19T01:12:40;5.50;;;2.40;;
15167;SDS011;7684;52.150;11.656;2022-07-19T01:15:13;5.67;;;2.00;;
15167;SDS011;7684;52.150;11.656;2022-07-19T01:17:40;4.03;;;2.20;;
15167;SDS011;7684;52.150;11.656;2022-07-19T01:20:07;7.93;;;2.50;;
15167;SDS011;7684;52.150;11.656;2022-07-19T01:22:35;4.00;;;2.00;;
15167;SDS011;7684;52.150;11.656;2022-07-19T01:25:01;4.87;;;2.40;;
15167;SDS011;7684;52.150;11.656;2022-07-19T01:27:27;4.67;;;2.43;;
15167;SDS011;7684;52.150;11.656;2022-07-19T01:29:54;8.07;;;2.53;;
15167;SDS011;7684;52.150;11.656;2022-07-19T01:32:21;5.07;;;2.40;;
15167;SDS011;7684;52.150;11.656;2022-07-19T01:34:47;8.20;;;2.10;;
15167;SDS011;7684;52.150;11.656;2022-07-19T01:37:14;4.17;;;2.27;;
15167;SDS011;7684;52.150;11.656;2022-07-19T01:39:42;5.03;;;2.20;;
15167;SDS011;7684;52.150;11.656;2022-07-19T01:42:08;5.43;;;2.20;;
15167;SDS011;7684;52.150;11.656;2022-07-19T01:44:35;5.33;;;2.23;;
15167;SDS011;7684;52.150;11.656;2022-07-19T01:47:01;6.50;;;2.30;;
15167;SDS011;7684;52.150;11.656;2022-07-19T01:49:28;4.20;;;2.23;;
15167;SDS011;7684;52.150;11.656;2022-07-19T01:51:54;6.57;;;2.20;;
15167;SDS011;7684;52.150;11.656;2022-07-19T01:54:21;6.50;;;2.33;;
15167;SDS011;7684;52.150;11.656;2022-07-19T01:56:48;5.97;;;2.73;;
15167;SDS011;7684;52.150;11.656;2022-07-19T01:59:15;3.30;;;2.13;;
15167;SDS011;7684;52.150;11.656;2022-07-19T02:01:41;6.87;;;2.47;;
15167;SDS011;7684;52.150;11.656;2022-07-19T02:04:08;5.53;;;2.40;;
15167;SDS011;7684;52.150;11.656;2022-07-19T02:06:34;4.13;;;2.20;;
15167;SDS011;7684;52.150;11.656;2022-07-19T02:09:00;6.77;;;2.30;;
15167;SDS011;7684;52.150;11.656;2022-07-19T02:11:27;4.93;;;2.07;;
15167;SDS011;7684;52.150;11.656;2022-07-19T02:14:05;6.70;;;2.40;;
15167;SDS011;7684;52.150;11.656;2022-07-19T02:16:31;4.17;;;2.10;;
15167;SDS011;7684;52.150;11.656;2022-07-19T02:18:58;4.90;;;2.30;;
15167;SDS011;7684;52.150;11.656;2022-07-19T02:21:24;6.70;;;2.50;;
15167;SDS011;7684;52.150;11.656;2022-07-19T02:23:51;9.77;;;2.90;;
15167;SDS011;7684;52.150;11.656;2022-07-19T02:26:17;4.43;;;2.30;;
15167;SDS011;7684;52.150;11.656;2022-07-19T02:28:44;5.97;;;2.57;;
15167;SDS011;7684;52.150;11.656;2022-07-19T02:31:12;4.70;;;2.40;;
15167;SDS011;7684;52.150;11.656;2022-07-19T02:33:38;5.67;;;2.67;;
15167;SDS011;7684;52.150;11.656;2022-07-19T02:36:04;6.87;;;2.40;;
15167;SDS011;7684;52.150;11.656;2022-07-19T02:38:31;6.10;;;2.40;;
15167;SDS011;7684;52.150;11.656;2022-07-19T02:40:57;4.93;;;2.70;;
15167;SDS011;7684;52.150;11.656;2022-07-19T02:43:24;5.00;;;2.40;;
15167;SDS011;7684;52.150;11.656;2022-07-19T02:45:51;4.57;;;2.17;;
15167;SDS011;7684;52.150;11.656;2022-07-19T02:48:19;4.00;;;2.30;;
15167;SDS011;7684;52.150;11.656;2022-07-19T02:50:46;5.37;;;2.20;;
15167;SDS011;7684;52.150;11.656;2022-07-19T02:53:12;5.97;;;2.70;;
15167;SDS011;7684;52.150;11.656;2022-07-19T02:55:39;3.53;;;2.63;;
15167;SDS011;7684;52.150;11.656;2022-07-19T02:58:05;5.87;;;2.53;;
15167;SDS011;7684;52.150;11.656;2022-07-19T03:00:32;8.15;;;2.60;;
15167;SDS011;7684;52.150;11.656;2022-07-19T03:02:58;6.30;;;2.40;;
15167;SDS011;7684;52.150;11.656;2022-07-19T03:05:47;5.70;;;2.60;;
15167;SDS011;7684;52.150;11.656;2022-07-19T03:08:14;4.60;;;2.50;;
15167;SDS011;7684;52.150;11.656;2022-07-19T03:10:40;7.00;;;2.50;;
15167;SDS011;7684;52.150;11.656;2022-07-19T03:13:06;3.67;;;2.43;;
15167;SDS011;7684;52.150;11.656;2022-07-19T03:15:33;6.00;;;2.50;;
15167;SDS011;7684;52.150;11.656;2022-07-19T03:18:00;6.67;;;2.80;;
15167;SDS011;7684;52.150;11.656;2022-07-19T03:20:26;6.33;;;2.50;;
15167;SDS011;7684;52.150;11.656;2022-07-19T03:22:54;8.60;;;2.87;;
15167;SDS011;7684;52.150;11.656;2022-07-19T03:25:20;5.37;;;2.50;;
15167;SDS011;7684;52.150;11.656;2022-07-19T03:27:47;8.15;;;2.75;;
15167;SDS011;7684;52.150;11.656;2022-07-19T03:30:14;5.57;;;2.90;;
15167;SDS011;7684;52.150;11.656;2022-07-19T03:32:40;7.27;;;3.00;;
15167;SDS011;7684;52.150;11.656;2022-07-19T03:35:07;6.07;;;2.60;;
15167;SDS011;7684;52.150;11.656;2022-07-19T03:37:33;6.63;;;3.00;;
15167;SDS011;7684;52.150;11.656;2022-07-19T03:40:01;8.10;;;3.23;;
15167;SDS011;7684;52.150;11.656;2022-07-19T03:42:27;5.50;;;3.13;;
15167;SDS011;7684;52.150;11.656;2022-07-19T03:44:54;4.67;;;3.20;;
15167;SDS011;7684;52.150;11.656;2022-07-19T03:47:20;6.10;;;3.10;;
15167;SDS011;7684;52.150;11.656;2022-07-19T03:49:46;5.63;;;2.72;;
15167;SDS011;7684;52.150;11.656;2022-07-19T03:52:13;5.93;;;2.60;;
15167;SDS011;7684;52.150;11.656;2022-07-19T03:54:39;5.27;;;2.80;;
15167;SDS011;7684;52.150;11.656;2022-07-19T03:57:07;7.53;;;2.90;;
15167;SDS011;7684;52.150;11.656;2022-07-19T03:59:33;4.80;;;2.65;;
15167;SDS011;7684;52.150;11.656;2022-07-19T04:02:00;5.80;;;2.73;;
15167;SDS011;7684;52.150;11.656;2022-07-19T04:04:26;8.23;;;3.00;;
15167;SDS011;7684;52.150;11.656;2022-07-19T04:06:53;6.73;;;3.23;;
15167;SDS011;7684;52.150;11.656;2022-07-19T04:09:20;8.83;;;3.27;;
15167;SDS011;7684;52.150;11.656;2022-07-19T04:11:46;5.07;;;2.50;;
15167;SDS011;7684;52.150;11.656;2022-07-19T04:14:14;7.20;;;3.10;;
15167;SDS011;7684;52.150;11.656;2022-07-19T04:16:40;6.60;;;2.87;;
15167;SDS011;7684;52.150;11.656;2022-07-19T04:19:07;10.17;;;3.30;;
15167;SDS011;7684;52.150;11.656;2022-07-19T04:21:33;5.43;;;2.40;;
15167;SDS011;7684;52.150;11.656;2022-07-19T04:23:59;3.97;;;2.53;;
15167;SDS011;7684;52.150;11.656;2022-07-19T04:26:26;7.73;;;2.70;;
15167;SDS011;7684;52.150;11.656;2022-07-19T04:28:52;5.63;;;2.87;;
15167;SDS011;7684;52.150;11.656;2022-07-19T04:31:20;3.50;;;2.80;;
15167;SDS011;7684;52.150;11.656;2022-07-19T04:33:46;5.77;;;2.73;;
15167;SDS011;7684;52.150;11.656;2022-07-19T04:36:13;5.63;;;2.77;;
15167;SDS011;7684;52.150;11.656;2022-07-19T04:38:39;6.77;;;2.60;;
15167;SDS011;7684;52.150;11.656;2022-07-19T04:41:06;4.63;;;2.63;;
15167;SDS011;7684;52.150;11.656;2022-07-19T04:43:32;9.47;;;3.43;;
15167;SDS011;7684;52.150;11.656;2022-07-19T04:45:58;4.27;;;2.83;;
15167;SDS011;7684;52.150;11.656;2022-07-19T04:48:26;5.93;;;2.57;;
15167;SDS011;7684;52.150;11.656;2022-07-19T04:50:53;5.03;;;2.60;;
15167;SDS011;7684;52.150;11.656;2022-07-19T04:53:19;5.10;;;2.60;;
15167;SDS011;7684;52.150;11.656;2022-07-19T04:55:45;7.33;;;3.00;;
15167;SDS011;7684;52.150;11.656;2022-07-19T04:58:12;4.53;;;2.60;;
15167;SDS011;7684;52.150;11.656;2022-07-19T05:00:38;6.30;;;2.70;;
15167;SDS011;7684;52.150;11.656;2022-07-19T05:03:04;7.47;;;2.83;;
15167;SDS011;7684;52.150;11.656;2022-07-19T05:05:32;4.77;;;2.43;;
15167;SDS011;7684;52.150;11.656;2022-07-19T05:07:59;4.77;;;2.63;;
15167;SDS011;7684;52.150;11.656;2022-07-19T05:10:25;5.80;;;2.77;;
15167;SDS011;7684;52.150;11.656;2022-07-19T05:12:52;6.67;;;2.90;;
15167;SDS011;7684;52.150;11.656;2022-07-19T05:15:18;4.93;;;3.00;;
15167;SDS011;7684;52.150;11.656;2022-07-19T05:17:44;5.77;;;2.60;;
15167;SDS011;7684;52.150;11.656;2022-07-19T05:20:11;13.40;;;3.63;;
15167;SDS011;7684;52.150;11.656;2022-07-19T05:22:42;8.87;;;3.20;;
15167;SDS011;7684;52.150;11.656;2022-07-19T05:25:08;4.78;;;2.70;;
15167;SDS011;7684;52.150;11.656;2022-07-19T05:27:35;12.50;;;2.60;;
15167;SDS011;7684;52.150;11.656;2022-07-19T05:30:02;7.17;;;2.70;;
15167;SDS011;7684;52.150;11.656;2022-07-19T05:32:29;6.97;;;2.67;;
15167;SDS011;7684;52.150;11.656;2022-07-19T05:34:55;4.33;;;2.40;;
15167;SDS011;7684;52.150;11.656;2022-07-19T05:37:22;7.15;;;2.80;;
15167;SDS011;7684;52.150;11.656;2022-07-19T05:39:50;3.70;;;2.35;;
15167;SDS011;7684;52.150;11.656;2022-07-19T05:42:16;6.50;;;2.55;;
15167;SDS011;7684;52.150;11.656;2022-07-19T05:44:42;6.22;;;2.72;;
15167;SDS011;7684;52.150;11.656;2022-07-19T05:47:08;11.23;;;2.97;;
15167;SDS011;7684;52.150;11.656;2022-07-19T05:49:35;6.00;;;3.20;;
15167;SDS011;7684;52.150;11.656;2022-07-19T05:52:01;5.22;;;2.70;;
15167;SDS011;7684;52.150;11.656;2022-07-19T05:54:28;5.70;;;2.70;;
15167;SDS011;7684;52.150;11.656;2022-07-19T05:56:55;5.43;;;2.70;;
15167;SDS011;7684;52.150;11.656;2022-07-19T05:59:22;7.50;;;2.88;;
15167;SDS011;7684;52.150;11.656;2022-07-19T06:01:48;8.00;;;2.70;;
15167;SDS011;7684;52.150;11.656;2022-07-19T06:04:15;6.03;;;3.08;;
15167;SDS011;7684;52.150;11.656;2022-07-19T06:06:42;5.70;;;2.75;;
15167;SDS011;7684;52.150;11.656;2022-07-19T06:09:08;4.88;;;2.95;;
15167;SDS011;7684;52.150;11.656;2022-07-19T06:11:37;9.10;;;3.03;;
15167;SDS011;7684;52.150;11.656;2022-07-19T06:14:05;7.90;;;2.80;;
15167;SDS011;7684;52.150;11.656;2022-07-19T06:16:33;8.30;;;3.17;;
15167;SDS011;7684;52.150;11.656;2022-07-19T06:19:00;7.78;;;3.13;;
15167;SDS011;7684;52.150;11.656;2022-07-19T06:21:26;12.00;;;3.50;;
15167;SDS011;7684;52.150;11.656;2022-07-19T06:23:52;8.77;;;3.00;;
15167;SDS011;7684;52.150;11.656;2022-07-19T06:26:19;9.23;;;3.10;;
15167;SDS011;7684;52.150;11.656;2022-07-19T06:28:45;7.20;;;2.70;;
15167;SDS011;7684;52.150;11.656;2022-07-19T06:31:13;6.95;;;2.80;;
15167;SDS011;7684;52.150;11.656;2022-07-19T06:33:42;7.63;;;2.72;;
15167;SDS011;7684;52.150;11.656;2022-07-19T06:36:09;4.35;;;2.95;;
15167;SDS011;7684;52.150;11.656;2022-07-19T06:38:36;5.72;;;2.83;;
15167;SDS011;7684;52.150;11.656;2022-07-19T06:41:06;13.43;;;2.90;;
15167;SDS011;7684;52.150;11.656;2022-07-19T06:43:33;5.20;;;2.70;;
15167;SDS011;7684;52.150;11.656;2022-07-19T06:45:59;9.63;;;3.63;;
15167;SDS011;7684;52.150;11.656;2022-07-19T06:48:27;4.75;;;2.90;;
15167;SDS011;7684;52.150;11.656;2022-07-19T06:50:54;7.53;;;3.03;;
15167;SDS011;7684;52.150;11.656;2022-07-19T06:53:20;8.35;;;2.97;;
15167;SDS011;7684;52.150;11.656;2022-07-19T06:55:47;11.73;;;3.33;;
15167;SDS011;7684;52.150;11.656;2022-07-19T06:58:13;6.35;;;3.08;;
15167;SDS011;7684;52.150;11.656;2022-07-19T07:00:39;7.95;;;2.88;;
15167;SDS011;7684;52.150;11.656;2022-07-19T07:03:06;9.55;;;2.92;;
15167;SDS011;7684;52.150;11.656;2022-07-19T07:05:34;9.02;;;2.88;;
15167;SDS011;7684;52.150;11.656;2022-07-19T07:08:00;8.73;;;2.72;;
15167;SDS011;7684;52.150;11.656;2022-07-19T07:10:26;4.55;;;2.92;;
15167;SDS011;7684;52.150;11.656;2022-07-19T07:12:53;4.40;;;2.67;;
15167;SDS011;7684;52.150;11.656;2022-07-19T07:15:19;9.50;;;2.97;;
15167;SDS011;7684;52.150;11.656;2022-07-19T07:17:45;11.13;;;2.70;;
15167;SDS011;7684;52.150;11.656;2022-07-19T07:20:12;10.77;;;3.10;;
15167;SDS011;7684;52.150;11.656;2022-07-19T07:22:39;8.15;;;3.28;;
15167;SDS011;7684;52.150;11.656;2022-07-19T07:25:06;10.55;;;3.25;;
15167;SDS011;7684;52.150;11.656;2022-07-19T07:27:33;9.48;;;2.65;;
15167;SDS011;7684;52.150;11.656;2022-07-19T07:29:59;7.35;;;2.80;;
15167;SDS011;7684;52.150;11.656;2022-07-19T07:32:25;12.90;;;3.20;;
15167;SDS011;7684;52.150;11.656;2022-07-19T07:34:52;12.23;;;3.25;;
15167;SDS011;7684;52.150;11.656;2022-07-19T07:37:19;11.73;;;3.28;;
15167;SDS011;7684;52.150;11.656;2022-07-19T07:39:47;8.75;;;2.80;;
15167;SDS011;7684;52.150;11.656;2022-07-19T07:42:13;12.32;;;3.28;;
15167;SDS011;7684;52.150;11.656;2022-07-19T07:44:40;11.57;;;2.95;;
15167;SDS011;7684;52.150;11.656;2022-07-19T07:47:06;7.97;;;2.97;;
15167;SDS011;7684;52.150;11.656;2022-07-19T07:49:33;8.63;;;2.95;;
15167;SDS011;7684;52.150;11.656;2022-07-19T07:51:59;5.03;;;2.97;;
15167;SDS011;7684;52.150;11.656;2022-07-19T07:54:26;8.10;;;2.85;;
15167;SDS011;7684;52.150;11.656;2022-07-19T07:56:53;5.40;;;2.60;;
15167;SDS011;7684;52.150;11.656;2022-07-19T07:59:20;6.93;;;2.58;;
15167;SDS011;7684;52.150;11.656;2022-07-19T08:01:46;10.48;;;3.38;;
15167;SDS011;7684;52.150;11.656;2022-07-19T08:04:12;6.65;;;2.70;;
15167;SDS011;7684;52.150;11.656;2022-07-19T08:06:39;7.30;;;2.78;;
15167;SDS011;7684;52.150;11.656;2022-07-19T08:09:06;3.42;;;1.98;;
15167;SDS011;7684;52.150;11.656;2022-07-19T08:11:32;9.48;;;2.75;;
15167;SDS011;7684;52.150;11.656;2022-07-19T08:14:00;4.28;;;2.15;;
15167;SDS011;7684;52.150;11.656;2022-07-19T08:16:27;6.57;;;2.83;;
15167;SDS011;7684;52.150;11.656;2022-07-19T08:18:53;13.52;;;3.58;;
15167;SDS011;7684;52.150;11.656;2022-07-19T08:21:19;9.18;;;2.97;;
15167;SDS011;7684;52.150;11.656;2022-07-19T08:23:46;6.40;;;2.60;;
15167;SDS011;7684;52.150;11.656;2022-07-19T08:26:12;13.52;;;3.00;;
15167;SDS011;7684;52.150;11.656;2022-07-19T08:28:38;12.20;;;3.28;;
15167;SDS011;7684;52.150;11.656;2022-07-19T08:31:07;7.80;;;3.15;;
15167;SDS011;7684;52.150;11.656;2022-07-19T08:33:33;3.10;;;2.60;;
15167;SDS011;7684;52.150;11.656;2022-07-19T08:36:00;4.38;;;2.53;;
15167;SDS011;7684;52.150;11.656;2022-07-19T08:38:26;6.43;;;2.50;;
15167;SDS011;7684;52.150;11.656;2022-07-19T08:40:52;3.92;;;2.20;;
15167;SDS011;7684;52.150;11.656;2022-07-19T08:43:20;11.45;;;2.60;;
15167;SDS011;7684;52.150;11.656;2022-07-19T08:45:47;5.10;;;2.63;;
15167;SDS011;7684;52.150;11.656;2022-07-19T08:48:15;8.02;;;2.50;;
15167;SDS011;7684;52.150;11.656;2022-07-19T08:50:42;4.60;;;2.20;;
15167;SDS011;7684;52.150;11.656;2022-07-19T08:53:10;7.07;;;2.35;;
15167;SDS011;7684;52.150;11.656;2022-07-19T08:55:36;5.80;;;2.53;;
15167;SDS011;7684;52.150;11.656;2022-07-19T08:58:05;4.53;;;2.00;;
15167;SDS011;7684;52.150;11.656;2022-07-19T09:00:32;6.60;;;2.40;;
15167;SDS011;7684;52.150;11.656;2022-07-19T09:02:59;2.72;;;1.85;;
15167;SDS011;7684;52.150;11.656;2022-07-19T09:05:27;5.13;;;2.20;;
15167;SDS011;7684;52.150;11.656;2022-07-19T09:08:01;5.80;;;2.10;;
15167;SDS011;7684;52.150;11.656;2022-07-19T09:10:28;3.28;;;1.73;;
15167;SDS011;7684;52.150;11.656;2022-07-19T09:13:06;3.67;;;2.00;;
15167;SDS011;7684;52.150;11.656;2022-07-19T09:15:36;2.70;;;2.30;;
15167;SDS011;7684;52.150;11.656;2022-07-19T09:18:06;2.70;;;1.90;;
15167;SDS011;7684;52.150;11.656;2022-07-19T09:20:34;2.22;;;1.60;;
15167;SDS011;7684;52.150;11.656;2022-07-19T09:23:01;3.97;;;1.75;;
15167;SDS011;7684;52.150;11.656;2022-07-19T09:25:32;2.10;;;1.90;;
15167;SDS011;7684;52.150;11.656;2022-07-19T09:27:58;3.25;;;1.70;;
15167;SDS011;7684;52.150;11.656;2022-07-19T09:30:31;2.97;;;1.80;;
15167;SDS011;7684;52.150;11.656;2022-07-19T09:33:04;3.08;;;1.80;;
15167;SDS011;7684;52.150;11.656;2022-07-19T09:35:34;4.50;;;2.15;;
15167;SDS011;7684;52.150;11.656;2022-07-19T09:38:13;3.17;;;1.98;;
15167;SDS011;7684;52.150;11.656;2022-07-19T09:40:39;3.13;;;1.40;;
15167;SDS011;7684;52.150;11.656;2022-07-19T09:43:05;2.13;;;1.65;;
15167;SDS011;7684;52.150;11.656;2022-07-19T09:45:32;3.85;;;1.42;;
15167;SDS011;7684;52.150;11.656;2022-07-19T09:47:59;4.68;;;1.80;;
15167;SDS011;7684;52.150;11.656;2022-07-19T09:50:25;3.72;;;1.65;;
15167;SDS011;7684;52.150;11.656;2022-07-19T09:52:53;3.20;;;1.70;;
15167;SDS011;7684;52.150;11.656;2022-07-19T09:55:20;2.30;;;1.67;;
15167;SDS011;7684;52.150;11.656;2022-07-19T09:57:46;3.28;;;1.70;;
15167;SDS011;7684;52.150;11.656;2022-07-19T10:00:14;1.50;;;1.40;;
15167;SDS011;7684;52.150;11.656;2022-07-19T10:02:41;1.88;;;1.48;;
15167;SDS011;7684;52.150;11.656;2022-07-19T10:05:08;3.00;;;1.40;;
15167;SDS011;7684;52.150;11.656;2022-07-19T10:07:36;2.63;;;1.27;;
15167;SDS011;7684;52.150;11.656;2022-07-19T10:10:04;2.90;;;1.48;;
15167;SDS011;7684;52.150;11.656;2022-07-19T10:12:31;3.60;;;1.30;;
15167;SDS011;7684;52.150;11.656;2022-07-19T10:14:58;2.33;;;1.30;;
15167;SDS011;7684;52.150;11.656;2022-07-19T10:17:26;2.45;;;1.48;;
15167;SDS011;7684;52.150;11.656;2022-07-19T10:19:54;3.78;;;1.70;;
15167;SDS011;7684;52.150;11.656;2022-07-19T10:22:22;1.55;;;1.45;;
15167;SDS011;7684;52.150;11.656;2022-07-19T10:24:50;2.70;;;1.20;;
15167;SDS011;7684;52.150;11.656;2022-07-19T10:30:16;1.63;;;1.25;;
15167;SDS011;7684;52.150;11.656;2022-07-19T10:32:43;4.78;;;1.55;;
15167;SDS011;7684;52.150;11.656;2022-07-19T10:35:14;2.33;;;1.27;;
15167;SDS011;7684;52.150;11.656;2022-07-19T10:37:41;2.15;;;1.40;;
15167;SDS011;7684;52.150;11.656;2022-07-19T10:40:08;2.33;;;1.35;;
15167;SDS011;7684;52.150;11.656;2022-07-19T10:42:34;2.65;;;1.48;;
15167;SDS011;7684;52.150;11.656;2022-07-19T10:45:17;1.98;;;1.40;;
15167;SDS011;7684;52.150;11.656;2022-07-19T10:50:41;3.22;;;1.45;;
15167;SDS011;7684;52.150;11.656;2022-07-19T10:53:08;3.97;;;1.50;;
15167;SDS011;7684;52.150;11.656;2022-07-19T10:55:34;2.40;;;1.45;;
15167;SDS011;7684;52.150;11.656;2022-07-19T10:58:08;3.30;;;1.50;;
15167;SDS011;7684;52.150;11.656;2022-07-19T11:00:43;1.63;;;1.23;;
15167;SDS011;7684;52.150;11.656;2022-07-19T11:03:28;2.40;;;1.50;;
15167;SDS011;7684;52.150;11.656;2022-07-19T11:05:55;2.88;;;1.30;;
15167;SDS011;7684;52.150;11.656;2022-07-19T11:08:30;2.92;;;1.52;;
15167;SDS011;7684;52.150;11.656;2022-07-19T11:11:01;3.35;;;1.60;;
15167;SDS011;7684;52.150;11.656;2022-07-19T11:13:27;2.70;;;1.50;;
15167;SDS011;7684;52.150;11.656;2022-07-19T11:15:56;1.42;;;1.33;;
15167;SDS011;7684;52.150;11.656;2022-07-19T11:18:23;1.92;;;1.40;;
15167;SDS011;7684;52.150;11.656;2022-07-19T11:20:49;3.08;;;1.40;;
15167;SDS011;7684;52.150;11.656;2022-07-19T11:23:17;3.53;;;1.50;;
15167;SDS011;7684;52.150;11.656;2022-07-19T11:25:44;3.40;;;1.48;;
15167;SDS011;7684;52.150;11.656;2022-07-19T11:28:18;4.28;;;1.70;;
15167;SDS011;7684;52.150;11.656;2022-07-19T11:30:45;3.05;;;1.30;;
15167;SDS011;7684;52.150;11.656;2022-07-19T11:33:15;4.43;;;1.42;;
15167;SDS011;7684;52.150;11.656;2022-07-19T11:35:51;2.00;;;1.30;;
15167;SDS011;7684;52.150;11.656;2022-07-19T11:38:18;3.42;;;1.33;;
15167;SDS011;7684;52.150;11.656;2022-07-19T11:40:44;4.57;;;1.42;;
15167;SDS011;7684;52.150;11.656;2022-07-19T11:43:10;1.90;;;1.35;;
15167;SDS011;7684;52.150;11.656;2022-07-19T11:45:41;3.28;;;1.40;;
15167;SDS011;7684;52.150;11.656;2022-07-19T11:48:07;1.60;;;1.40;;
15167;SDS011;7684;52.150;11.656;2022-07-19T11:50:35;2.75;;;1.60;;
15167;SDS011;7684;52.150;11.656;2022-07-19T11:53:01;1.85;;;1.40;;
15167;SDS011;7684;52.150;11.656;2022-07-19T11:55:34;3.70;;;1.30;;
15167;SDS011;7684;52.150;11.656;2022-07-19T11:58:01;2.90;;;1.35;;
15167;SDS011;7684;52.150;11.656;2022-07-19T12:00:31;3.40;;;1.30;;
15167;SDS011;7684;52.150;11.656;2022-07-19T12:02:58;1.73;;;1.27;;
15167;SDS011;7684;52.150;11.656;2022-07-19T12:05:29;4.50;;;1.50;;
15167;SDS011;7684;52.150;11.656;2022-07-19T12:07:58;3.92;;;1.17;;
15167;SDS011;7684;52.150;11.656;2022-07-19T12:13:26;2.60;;;1.30;;
15167;SDS011;7684;52.150;11.656;2022-07-19T12:15:54;2.10;;;1.33;;
15167;SDS011;7684;52.150;11.656;2022-07-19T12:21:21;1.65;;;1.23;;
15167;SDS011;7684;52.150;11.656;2022-07-19T12:26:36;2.92;;;1.10;;
15167;SDS011;7684;52.150;11.656;2022-07-19T12:29:15;2.28;;;1.20;;
15167;SDS011;7684;52.150;11.656;2022-07-19T12:31:42;1.85;;;1.48;;
15167;SDS011;7684;52.150;11.656;2022-07-19T12:34:08;1.52;;;1.23;;
15167;SDS011;7684;52.150;11.656;2022-07-19T12:36:35;1.95;;;1.30;;
15167;SDS011;7684;52.150;11.656;2022-07-19T12:39:01;5.25;;;1.50;;
15167;SDS011;7684;52.150;11.656;2022-07-19T12:41:28;2.50;;;1.45;;
15167;SDS011;7684;52.150;11.656;2022-07-19T12:43:56;1.95;;;1.08;;
15167;SDS011;7684;52.150;11.656;2022-07-19T12:46:25;2.60;;;1.30;;
15167;SDS011;7684;52.150;11.656;2022-07-19T12:48:51;1.45;;;1.17;;
15167;SDS011;7684;52.150;11.656;2022-07-19T12:51:18;1.63;;;1.30;;
15167;SDS011;7684;52.150;11.656;2022-07-19T12:53:44;1.70;;;1.10;;
15167;SDS011;7684;52.150;11.656;2022-07-19T12:56:11;5.38;;;1.42;;
15167;SDS011;7684;52.150;11.656;2022-07-19T12:58:37;1.38;;;1.15;;
15167;SDS011;7684;52.150;11.656;2022-07-19T13:01:22;5.53;;;1.50;;
15167;SDS011;7684;52.150;11.656;2022-07-19T13:03:49;3.13;;;1.38;;
15167;SDS011;7684;52.150;11.656;2022-07-19T13:06:16;2.55;;;1.38;;
15167;SDS011;7684;52.150;11.656;2022-07-19T13:08:42;2.55;;;1.23;;
15167;SDS011;7684;52.150;11.656;2022-07-19T13:11:08;3.28;;;1.20;;
15167;SDS011;7684;52.150;11.656;2022-07-19T13:13:34;3.35;;;1.30;;
15167;SDS011;7684;52.150;11.656;2022-07-19T13:16:01;1.50;;;1.10;;
15167;SDS011;7684;52.150;11.656;2022-07-19T13:18:29;1.88;;;1.10;;
15167;SDS011;7684;52.150;11.656;2022-07-19T13:20:55;1.13;;;1.00;;
15167;SDS011;7684;52.150;11.656;2022-07-19T13:23:23;2.67;;;1.35;;
15167;SDS011;7684;52.150;11.656;2022-07-19T13:25:49;4.20;;;1.50;;
15167;SDS011;7684;52.150;11.656;2022-07-19T13:28:15;3.30;;;1.48;;
15167;SDS011;7684;52.150;11.656;2022-07-19T13:30:42;1.88;;;1.20;;
15167;SDS011;7684;52.150;11.656;2022-07-19T13:33:09;2.40;;;1.10;;
15167;SDS011;7684;52.150;11.656;2022-07-19T13:35:37;2.05;;;1.50;;
15167;SDS011;7684;52.150;11.656;2022-07-19T13:38:03;2.53;;;1.25;;
15167;SDS011;7684;52.150;11.656;2022-07-19T13:40:29;2.53;;;1.30;;
15167;SDS011;7684;52.150;11.656;2022-07-19T13:42:56;1.50;;;1.27;;
15167;SDS011;7684;52.150;11.656;2022-07-19T13:45:22;4.78;;;1.42;;
15167;SDS011;7684;52.150;11.656;2022-07-19T13:47:48;2.97;;;1.30;;
15167;SDS011;7684;52.150;11.656;2022-07-19T13:50:14;4.95;;;1.20;;
15167;SDS011;7684;52.150;11.656;2022-07-19T13:52:43;2.10;;;1.50;;
15167;SDS011;7684;52.150;11.656;2022-07-19T13:55:09;3.63;;;1.30;;
15167;SDS011;7684;52.150;11.656;2022-07-19T13:57:35;3.78;;;1.10;;
15167;SDS011;7684;52.150;11.656;2022-07-19T14:00:03;1.92;;;1.02;;
15167;SDS011;7684;52.150;11.656;2022-07-19T14:02:31;2.80;;;1.08;;
15167;SDS011;7684;52.150;11.656;2022-07-19T14:04:57;1.95;;;1.10;;
15167;SDS011;7684;52.150;11.656;2022-07-19T14:07:24;1.88;;;1.20;;
15167;SDS011;7684;52.150;11.656;2022-07-19T14:09:51;1.90;;;1.40;;
15167;SDS011;7684;52.150;11.656;2022-07-19T14:12:18;3.13;;;1.52;;
15167;SDS011;7684;52.150;11.656;2022-07-19T14:14:44;2.78;;;1.40;;
15167;SDS011;7684;52.150;11.656;2022-07-19T14:17:10;2.63;;;1.00;;
15167;SDS011;7684;52.150;11.656;2022-07-19T14:19:37;2.20;;;1.10;;
15167;SDS011;7684;52.150;11.656;2022-07-19T14:22:03;2.22;;;1.35;;
15167;SDS011;7684;52.150;11.656;2022-07-19T14:24:30;1.50;;;1.27;;
15167;SDS011;7684;52.150;11.656;2022-07-19T14:26:58;1.92;;;1.13;;
15167;SDS011;7684;52.150;11.656;2022-07-19T14:29:24;1.27;;;0.98;;
15167;SDS011;7684;52.150;11.656;2022-07-19T14:31:51;4.10;;;1.45;;
15167;SDS011;7684;52.150;11.656;2022-07-19T14:34:17;2.30;;;1.60;;
15167;SDS011;7684;52.150;11.656;2022-07-19T14:36:43;2.63;;;1.20;;
15167;SDS011;7684;52.150;11.656;2022-07-19T14:39:10;2.33;;;1.05;;
15167;SDS011;7684;52.150;11.656;2022-07-19T14:41:36;1.52;;;1.13;;
15167;SDS011;7684;52.150;11.656;2022-07-19T14:44:04;2.92;;;1.20;;
15167;SDS011;7684;52.150;11.656;2022-07-19T14:46:31;4.05;;;2.00;;
15167;SDS011;7684;52.150;11.656;2022-07-19T14:48:57;3.05;;;1.50;;
15167;SDS011;7684;52.150;11.656;2022-07-19T14:51:24;1.42;;;1.15;;
15167;SDS011;7684;52.150;11.656;2022-07-19T14:53:50;2.00;;;1.10;;
15167;SDS011;7684;52.150;11.656;2022-07-19T14:56:16;1.90;;;1.33;;
15167;SDS011;7684;52.150;11.656;2022-07-19T14:58:43;3.00;;;1.27;;
15167;SDS011;7684;52.150;11.656;2022-07-19T15:01:12;1.40;;;1.10;;
15167;SDS011;7684;52.150;11.656;2022-07-19T15:03:38;1.48;;;1.23;;